sensor_id;sensor_type;location;lat;lon;timestamp;P1;P2;P0
33264;PMS5003;31404;53.974;-1.086;2023-06-22T00:00:34;7;7;
33264;PMS5003;31404;53.974;-1.086;2023-06-22T00:05:34;7;7;
33264;PMS5003;31404;53.974;-1.086;2023-06-22T00:10:34;7;7;
33264;PMS5003;31404;53.974;-1.086;2023-06-22T00:15:35;5;5;
33264;PMS5003;31404;53.974;-1.086;2023-06-22T00:20:34;7;6;
33264;PMS5003;31404;53.974;-1.086;2023-06-22T00:25:35;8;7;
33264;PMS5003;31404;53.974;-1.086;2023-06-22T00:30:34;8;8;
33264;PMS5003;31404;53.974;-1.086;2023-06-22T00:35:34;7;7;
33264;PMS5003;31404;53.974;-1.086;2023-06-22T00:40:34;8;8;
33264;PMS5003;31404;53.974;-1.086;2023-06-22T00:45:34;7;5;
33264;PMS5003;31404;53.974;-1.086;2023-06-22T00:50:34;11;8;
33264;PMS5003;31404;53.974;-1.086;2023-06-22T00:55:35;10;10;
33264;PMS5003;31404;53.974;-1.086;2023-06-22T01:00:34;9;9;
33264;PMS5003;31404;53.974;-1.086;2023-06-22T01:05:33;9;7;
33264;PMS5003;31404;53.974;-1.086;2023-06-22T01:10:35;6;6;
33264;PMS5003;31404;53.974;-1.086;2023-06-22T01:15:36;7;7;
33264;PMS5003;31404;53.974;-1.086;2023-06-22T01:20:36;7;7;
33264;PMS5003;31404;53.974;-1.086;2023-06-22T01:25:36;7;7;
33264;PMS5003;31404;53.974;-1.086;2023-06-22T01:30:34;6;6;
33264;PMS5003;31404;53.974;-1.086;2023-06-22T01:35:34;6;6;
33264;PMS5003;31404;53.974;-1.086;2023-06-22T01:40:34;6;6;
33264;PMS5003;31404;53.974;-1.086;2023-06-22T01:45:34;10;8;
33264;PMS5003;31404;53.974;-1.086;2023-06-22T01:50:33;8;6;
33264;PMS5003;31404;53.974;-1.086;2023-06-22T01:55:33;5;5;
33264;PMS5003;31404;53.974;-1.086;2023-06-22T02:00:36;5;5;
33264;PMS5003;31404;53.974;-1.086;2023-06-22T02:05:36;7;6;
33264;PMS5003;31404;53.974;-1.086;2023-06-22T02:10:34;8;8;
33264;PMS5003;31404;53.974;-1.086;2023-06-22T02:15:32;6;5;
33264;PMS5003;31404;53.974;-1.086;2023-06-22T02:20:36;8;7;
33264;PMS5003;31404;53.974;-1.086;2023-06-22T02:25:34;7;7;
33264;PMS5003;31404;53.974;-1.086;2023-06-22T02:30:34;17;17;
33264;PMS5003;31404;53.974;-1.086;2023-06-22T02:35:34;11;11;
33264;PMS5003;31404;53.974;-1.086;2023-06-22T02:40:34;11;9;
33264;PMS5003;31404;53.974;-1.086;2023-06-22T02:45:35;9;9;
33264;PMS5003;31404;53.974;-1.086;2023-06-22T02:50:34;12;9;
33264;PMS5003;31404;53.974;-1.086;2023-06-22T02:55:34;10;10;
33264;PMS5003;31404;53.974;-1.086;2023-06-22T03:00:33;12;10;
33264;PMS5003;31404;53.974;-1.086;2023-06-22T03:05:33;10;9;
33264;PMS5003;31404;53.974;-1.086;2023-06-22T03:10:33;11;9;
33264;PMS5003;31404;53.974;-1.086;2023-06-22T03:15:34;11;11;
33264;PMS5003;31404;53.974;-1.086;2023-06-22T03:20:34;10;10;
33264;PMS5003;31404;53.974;-1.086;2023-06-22T03:25:35;12;10;
33264;PMS5003;31404;53.974;-1.086;2023-06-22T03:30:34;12;12;
33264;PMS5003;31404;53.974;-1.086;2023-06-22T03:35:34;12;12;
33264;PMS5003;31404;53.974;-1.086;2023-06-22T03:40:33;12;12;
33264;PMS5003;31404;53.974;-1.086;2023-06-22T03:45:33;12;9;
33264;PMS5003;31404;53.974;-1.086;2023-06-22T03:50:28;14;13;
33264;PMS5003;31404;53.974;-1.086;2023-06-22T03:55:34;12;12;
33264;PMS5003;31404;53.974;-1.086;2023-06-22T04:00:34;14;13;
33264;PMS5003;31404;53.974;-1.086;2023-06-22T04:05:34;15;12;
33264;PMS5003;31404;53.974;-1.086;2023-06-22T04:10:34;11;9;
33264;PMS5003;31404;53.974;-1.086;2023-06-22T04:15:34;12;12;
33264;PMS5003;31404;53.974;-1.086;2023-06-22T04:20:35;12;11;
33264;PMS5003;31404;53.974;-1.086;2023-06-22T04:25:34;15;10;
33264;PMS5003;31404;53.974;-1.086;2023-06-22T04:30:34;12;10;
33264;PMS5003;31404;53.974;-1.086;2023-06-22T04:35:34;10;10;
33264;PMS5003;31404;53.974;-1.086;2023-06-22T04:40:34;9;9;
33264;PMS5003;31404;53.974;-1.086;2023-06-22T04:45:34;10;9;
33264;PMS5003;31404;53.974;-1.086;2023-06-22T04:50:34;8;7;
33264;PMS5003;31404;53.974;-1.086;2023-06-22T04:55:34;10;10;
33264;PMS5003;31404;53.974;-1.086;2023-06-22T05:00:33;4;4;
33264;PMS5003;31404;53.974;-1.086;2023-06-22T05:05:34;12;9;
33264;PMS5003;31404;53.974;-1.086;2023-06-22T05:10:34;10;10;
33264;PMS5003;31404;53.974;-1.086;2023-06-22T05:15:34;7;7;
33264;PMS5003;31404;53.974;-1.086;2023-06-22T05:20:35;6;6;
33264;PMS5003;31404;53.974;-1.086;2023-06-22T05:25:36;10;8;
33264;PMS5003;31404;53.974;-1.086;2023-06-22T05:30:34;14;12;
33264;PMS5003;31404;53.974;-1.086;2023-06-22T05:35:34;7;6;
33264;PMS5003;31404;53.974;-1.086;2023-06-22T05:40:34;11;10;
33264;PMS5003;31404;53.974;-1.086;2023-06-22T05:45:34;8;8;
33264;PMS5003;31404;53.974;-1.086;2023-06-22T05:50:36;11;8;
33264;PMS5003;31404;53.974;-1.086;2023-06-22T05:55:34;9;9;
33264;PMS5003;31404;53.974;-1.086;2023-06-22T06:00:34;11;10;
33264;PMS5003;31404;53.974;-1.086;2023-06-22T06:05:34;11;7;
33264;PMS5003;31404;53.974;-1.086;2023-06-22T06:10:34;9;8;
33264;PMS5003;31404;53.974;-1.086;2023-06-22T06:20:34;12;12;
33264;PMS5003;31404;53.974;-1.086;2023-06-22T06:25:39;13;12;
33264;PMS5003;31404;53.974;-1.086;2023-06-22T06:30:34;14;11;
33264;PMS5003;31404;53.974;-1.086;2023-06-22T06:35:34;14;11;
33264;PMS5003;31404;53.974;-1.086;2023-06-22T06:40:34;18;12;
33264;PMS5003;31404;53.974;-1.086;2023-06-22T06:45:34;10;10;
33264;PMS5003;31404;53.974;-1.086;2023-06-22T06:50:36;8;8;
33264;PMS5003;31404;53.974;-1.086;2023-06-22T06:55:34;15;11;
33264;PMS5003;31404;53.974;-1.086;2023-06-22T07:00:34;10;9;
33264;PMS5003;31404;53.974;-1.086;2023-06-22T07:05:34;12;9;
33264;PMS5003;31404;53.974;-1.086;2023-06-22T07:10:34;10;9;
33264;PMS5003;31404;53.974;-1.086;2023-06-22T07:15:35;21;14;
33264;PMS5003;31404;53.974;-1.086;2023-06-22T07:20:34;22;16;
33264;PMS5003;31404;53.974;-1.086;2023-06-22T07:25:41;12;12;
33264;PMS5003;31404;53.974;-1.086;2023-06-22T07:30:34;11;9;
33264;PMS5003;31404;53.974;-1.086;2023-06-22T07:35:34;8;8;
33264;PMS5003;31404;53.974;-1.086;2023-06-22T07:40:34;10;10;
33264;PMS5003;31404;53.974;-1.086;2023-06-22T07:45:34;11;11;
33264;PMS5003;31404;53.974;-1.086;2023-06-22T07:50:34;12;12;
33264;PMS5003;31404;53.974;-1.086;2023-06-22T07:55:34;11;11;
33264;PMS5003;31404;53.974;-1.086;2023-06-22T08:00:34;12;11;
33264;PMS5003;31404;53.974;-1.086;2023-06-22T08:05:34;12;10;
33264;PMS5003;31404;53.974;-1.086;2023-06-22T08:10:34;9;9;
33264;PMS5003;31404;53.974;-1.086;2023-06-22T08:15:33;11;9;
33264;PMS5003;31404;53.974;-1.086;2023-06-22T08:20:34;7;5;
33264;PMS5003;31404;53.974;-1.086;2023-06-22T08:25:34;10;9;
33264;PMS5003;31404;53.974;-1.086;2023-06-22T08:30:34;9;7;
33264;PMS5003;31404;53.974;-1.086;2023-06-22T08:35:34;9;9;
33264;PMS5003;31404;53.974;-1.086;2023-06-22T08:40:34;7;7;
33264;PMS5003;31404;53.974;-1.086;2023-06-22T08:45:34;9;9;
33264;PMS5003;31404;53.974;-1.086;2023-06-22T08:50:33;10;8;
33264;PMS5003;31404;53.974;-1.086;2023-06-22T08:55:34;9;9;
33264;PMS5003;31404;53.974;-1.086;2023-06-22T09:00:34;9;9;
33264;PMS5003;31404;53.974;-1.086;2023-06-22T09:05:33;15;9;
33264;PMS5003;31404;53.974;-1.086;2023-06-22T09:10:34;10;10;
33264;PMS5003;31404;53.974;-1.086;2023-06-22T09:15:34;12;10;
33264;PMS5003;31404;53.974;-1.086;2023-06-22T09:20:34;12;12;
33264;PMS5003;31404;53.974;-1.086;2023-06-22T09:25:34;10;7;
33264;PMS5003;31404;53.974;-1.086;2023-06-22T09:30:34;11;9;
33264;PMS5003;31404;53.974;-1.086;2023-06-22T09:35:34;13;13;
33264;PMS5003;31404;53.974;-1.086;2023-06-22T09:40:39;11;10;
33264;PMS5003;31404;53.974;-1.086;2023-06-22T09:45:34;9;9;
33264;PMS5003;31404;53.974;-1.086;2023-06-22T09:50:34;12;11;
33264;PMS5003;31404;53.974;-1.086;2023-06-22T09:55:34;12;9;
33264;PMS5003;31404;53.974;-1.086;2023-06-22T10:00:34;8;8;
33264;PMS5003;31404;53.974;-1.086;2023-06-22T10:05:34;9;8;
33264;PMS5003;31404;53.974;-1.086;2023-06-22T10:15:33;11;9;
33264;PMS5003;31404;53.974;-1.086;2023-06-22T10:20:34;10;10;
33264;PMS5003;31404;53.974;-1.086;2023-06-22T10:25:34;9;9;
33264;PMS5003;31404;53.974;-1.086;2023-06-22T10:30:34;5;5;
33264;PMS5003;31404;53.974;-1.086;2023-06-22T10:35:34;4;4;
33264;PMS5003;31404;53.974;-1.086;2023-06-22T10:40:34;8;8;
33264;PMS5003;31404;53.974;-1.086;2023-06-22T10:45:34;9;7;
33264;PMS5003;31404;53.974;-1.086;2023-06-22T10:50:34;6;6;
33264;PMS5003;31404;53.974;-1.086;2023-06-22T10:55:35;8;8;
33264;PMS5003;31404;53.974;-1.086;2023-06-22T11:00:34;5;5;
33264;PMS5003;31404;53.974;-1.086;2023-06-22T11:05:33;4;4;
33264;PMS5003;31404;53.974;-1.086;2023-06-22T11:10:34;6;6;
33264;PMS5003;31404;53.974;-1.086;2023-06-22T11:15:34;6;6;
33264;PMS5003;31404;53.974;-1.086;2023-06-22T11:20:35;5;5;
33264;PMS5003;31404;53.974;-1.086;2023-06-22T11:25:34;5;5;
33264;PMS5003;31404;53.974;-1.086;2023-06-22T11:30:34;6;6;
33264;PMS5003;31404;53.974;-1.086;2023-06-22T11:35:34;9;5;
33264;PMS5003;31404;53.974;-1.086;2023-06-22T11:40:33;6;6;
33264;PMS5003;31404;53.974;-1.086;2023-06-22T11:45:34;9;6;
33264;PMS5003;31404;53.974;-1.086;2023-06-22T11:50:34;7;7;
33264;PMS5003;31404;53.974;-1.086;2023-06-22T11:55:34;10;7;
33264;PMS5003;31404;53.974;-1.086;2023-06-22T12:00:34;6;6;
33264;PMS5003;31404;53.974;-1.086;2023-06-22T12:05:34;7;7;
33264;PMS5003;31404;53.974;-1.086;2023-06-22T12:10:34;5;5;
33264;PMS5003;31404;53.974;-1.086;2023-06-22T12:15:34;6;5;
33264;PMS5003;31404;53.974;-1.086;2023-06-22T12:20:35;6;6;
33264;PMS5003;31404;53.974;-1.086;2023-06-22T12:25:34;7;6;
33264;PMS5003;31404;53.974;-1.086;2023-06-22T12:30:34;6;6;
33264;PMS5003;31404;53.974;-1.086;2023-06-22T12:35:35;6;5;
33264;PMS5003;31404;53.974;-1.086;2023-06-22T12:40:34;4;4;
33264;PMS5003;31404;53.974;-1.086;2023-06-22T12:45:34;5;5;
33264;PMS5003;31404;53.974;-1.086;2023-06-22T12:50:34;4;4;
33264;PMS5003;31404;53.974;-1.086;2023-06-22T12:55:34;5;5;
33264;PMS5003;31404;53.974;-1.086;2023-06-22T13:00:34;7;6;
33264;PMS5003;31404;53.974;-1.086;2023-06-22T13:05:34;5;5;
33264;PMS5003;31404;53.974;-1.086;2023-06-22T13:10:33;10;5;
33264;PMS5003;31404;53.974;-1.086;2023-06-22T13:15:34;4;4;
33264;PMS5003;31404;53.974;-1.086;2023-06-22T13:20:34;5;5;
33264;PMS5003;31404;53.974;-1.086;2023-06-22T13:25:35;6;6;
33264;PMS5003;31404;53.974;-1.086;2023-06-22T13:30:34;6;4;
33264;PMS5003;31404;53.974;-1.086;2023-06-22T13:35:34;5;5;
33264;PMS5003;31404;53.974;-1.086;2023-06-22T13:40:34;3;3;
33264;PMS5003;31404;53.974;-1.086;2023-06-22T13:45:34;5;5;
33264;PMS5003;31404;53.974;-1.086;2023-06-22T13:50:34;6;5;
33264;PMS5003;31404;53.974;-1.086;2023-06-22T13:55:33;4;4;
33264;PMS5003;31404;53.974;-1.086;2023-06-22T14:00:33;5;5;
33264;PMS5003;31404;53.974;-1.086;2023-06-22T14:05:34;4;4;
33264;PMS5003;31404;53.974;-1.086;2023-06-22T14:10:34;5;4;
33264;PMS5003;31404;53.974;-1.086;2023-06-22T14:15:34;5;5;
33264;PMS5003;31404;53.974;-1.086;2023-06-22T14:20:34;5;4;
33264;PMS5003;31404;53.974;-1.086;2023-06-22T14:25:34;8;6;
33264;PMS5003;31404;53.974;-1.086;2023-06-22T14:30:34;4;4;
33264;PMS5003;31404;53.974;-1.086;2023-06-22T14:35:35;8;6;
33264;PMS5003;31404;53.974;-1.086;2023-06-22T14:40:34;7;7;
33264;PMS5003;31404;53.974;-1.086;2023-06-22T14:45:34;7;7;
33264;PMS5003;31404;53.974;-1.086;2023-06-22T14:50:34;3;3;
33264;PMS5003;31404;53.974;-1.086;2023-06-22T14:55:34;5;5;
33264;PMS5003;31404;53.974;-1.086;2023-06-22T15:00:34;6;6;
33264;PMS5003;31404;53.974;-1.086;2023-06-22T15:05:34;6;6;
33264;PMS5003;31404;53.974;-1.086;2023-06-22T15:10:34;5;5;
33264;PMS5003;31404;53.974;-1.086;2023-06-22T15:15:34;5;5;
33264;PMS5003;31404;53.974;-1.086;2023-06-22T15:20:34;6;6;
33264;PMS5003;31404;53.974;-1.086;2023-06-22T15:25:34;4;4;
33264;PMS5003;31404;53.974;-1.086;2023-06-22T15:30:34;7;7;
33264;PMS5003;31404;53.974;-1.086;2023-06-22T15:35:33;11;11;
33264;PMS5003;31404;53.974;-1.086;2023-06-22T15:40:34;13;12;
33264;PMS5003;31404;53.974;-1.086;2023-06-22T15:45:33;29;27;
33264;PMS5003;31404;53.974;-1.086;2023-06-22T15:50:33;31;29;
33264;PMS5003;31404;53.974;-1.086;2023-06-22T15:55:34;35;33;
33264;PMS5003;31404;53.974;-1.086;2023-06-22T16:00:34;17;15;
33264;PMS5003;31404;53.974;-1.086;2023-06-22T16:05:34;17;16;
33264;PMS5003;31404;53.974;-1.086;2023-06-22T16:10:34;17;14;
33264;PMS5003;31404;53.974;-1.086;2023-06-22T16:15:34;11;11;
33264;PMS5003;31404;53.974;-1.086;2023-06-22T16:20:34;20;20;
33264;PMS5003;31404;53.974;-1.086;2023-06-22T16:25:34;14;14;
33264;PMS5003;31404;53.974;-1.086;2023-06-22T16:30:34;9;9;
33264;PMS5003;31404;53.974;-1.086;2023-06-22T16:35:34;8;8;
33264;PMS5003;31404;53.974;-1.086;2023-06-22T16:40:34;10;10;
33264;PMS5003;31404;53.974;-1.086;2023-06-22T16:45:34;13;10;
33264;PMS5003;31404;53.974;-1.086;2023-06-22T16:50:34;12;11;
33264;PMS5003;31404;53.974;-1.086;2023-06-22T16:55:34;12;11;
33264;PMS5003;31404;53.974;-1.086;2023-06-22T17:00:34;12;10;
33264;PMS5003;31404;53.974;-1.086;2023-06-22T17:05:34;11;10;
33264;PMS5003;31404;53.974;-1.086;2023-06-22T17:10:34;14;13;
33264;PMS5003;31404;53.974;-1.086;2023-06-22T17:15:34;8;8;
33264;PMS5003;31404;53.974;-1.086;2023-06-22T17:20:34;12;11;
33264;PMS5003;31404;53.974;-1.086;2023-06-22T17:25:34;10;10;
33264;PMS5003;31404;53.974;-1.086;2023-06-22T17:30:34;10;9;
33264;PMS5003;31404;53.974;-1.086;2023-06-22T17:35:34;29;22;
33264;PMS5003;31404;53.974;-1.086;2023-06-22T17:40:34;8;8;
33264;PMS5003;31404;53.974;-1.086;2023-06-22T17:50:34;12;10;
33264;PMS5003;31404;53.974;-1.086;2023-06-22T17:55:34;10;9;
33264;PMS5003;31404;53.974;-1.086;2023-06-22T18:00:35;11;10;
33264;PMS5003;31404;53.974;-1.086;2023-06-22T18:05:35;11;11;
33264;PMS5003;31404;53.974;-1.086;2023-06-22T18:10:35;13;10;
33264;PMS5003;31404;53.974;-1.086;2023-06-22T18:15:34;9;9;
33264;PMS5003;31404;53.974;-1.086;2023-06-22T18:20:35;9;9;
33264;PMS5003;31404;53.974;-1.086;2023-06-22T18:25:34;9;9;
33264;PMS5003;31404;53.974;-1.086;2023-06-22T18:30:34;10;9;
33264;PMS5003;31404;53.974;-1.086;2023-06-22T18:35:35;10;10;
33264;PMS5003;31404;53.974;-1.086;2023-06-22T18:40:34;15;14;
33264;PMS5003;31404;53.974;-1.086;2023-06-22T18:45:34;12;12;
33264;PMS5003;31404;53.974;-1.086;2023-06-22T18:50:35;11;8;
33264;PMS5003;31404;53.974;-1.086;2023-06-22T18:55:34;9;9;
33264;PMS5003;31404;53.974;-1.086;2023-06-22T19:00:34;10;9;
33264;PMS5003;31404;53.974;-1.086;2023-06-22T19:05:37;8;8;
33264;PMS5003;31404;53.974;-1.086;2023-06-22T19:15:34;8;8;
33264;PMS5003;31404;53.974;-1.086;2023-06-22T19:20:34;15;11;
33264;PMS5003;31404;53.974;-1.086;2023-06-22T19:25:34;13;12;
33264;PMS5003;31404;53.974;-1.086;2023-06-22T19:30:34;9;7;
33264;PMS5003;31404;53.974;-1.086;2023-06-22T19:35:34;10;10;
33264;PMS5003;31404;53.974;-1.086;2023-06-22T19:40:34;13;13;
33264;PMS5003;31404;53.974;-1.086;2023-06-22T19:45:35;7;7;
33264;PMS5003;31404;53.974;-1.086;2023-06-22T19:50:34;13;10;
33264;PMS5003;31404;53.974;-1.086;2023-06-22T19:55:35;5;5;
33264;PMS5003;31404;53.974;-1.086;2023-06-22T20:00:34;11;10;
33264;PMS5003;31404;53.974;-1.086;2023-06-22T20:10:36;10;10;
33264;PMS5003;31404;53.974;-1.086;2023-06-22T20:20:36;12;11;
33264;PMS5003;31404;53.974;-1.086;2023-06-22T20:25:35;13;13;
33264;PMS5003;31404;53.974;-1.086;2023-06-22T20:30:35;14;13;
33264;PMS5003;31404;53.974;-1.086;2023-06-22T20:35:34;12;12;
33264;PMS5003;31404;53.974;-1.086;2023-06-22T20:40:34;10;10;
33264;PMS5003;31404;53.974;-1.086;2023-06-22T20:45:34;10;9;
33264;PMS5003;31404;53.974;-1.086;2023-06-22T20:50:35;16;12;
33264;PMS5003;31404;53.974;-1.086;2023-06-22T20:55:35;12;12;
33264;PMS5003;31404;53.974;-1.086;2023-06-22T21:00:34;10;10;
33264;PMS5003;31404;53.974;-1.086;2023-06-22T21:05:34;10;10;
33264;PMS5003;31404;53.974;-1.086;2023-06-22T21:10:34;9;9;
33264;PMS5003;31404;53.974;-1.086;2023-06-22T21:15:34;10;10;
33264;PMS5003;31404;53.974;-1.086;2023-06-22T21:20:33;11;11;
33264;PMS5003;31404;53.974;-1.086;2023-06-22T21:25:34;10;8;
33264;PMS5003;31404;53.974;-1.086;2023-06-22T21:30:34;10;8;
33264;PMS5003;31404;53.974;-1.086;2023-06-22T21:35:34;12;12;
33264;PMS5003;31404;53.974;-1.086;2023-06-22T21:40:34;11;11;
33264;PMS5003;31404;53.974;-1.086;2023-06-22T21:45:34;12;9;
33264;PMS5003;31404;53.974;-1.086;2023-06-22T21:50:34;8;8;
33264;PMS5003;31404;53.974;-1.086;2023-06-22T21:55:34;8;8;
33264;PMS5003;31404;53.974;-1.086;2023-06-22T22:00:34;15;14;
33264;PMS5003;31404;53.974;-1.086;2023-06-22T22:05:34;9;9;
33264;PMS5003;31404;53.974;-1.086;2023-06-22T22:10:34;13;13;
33264;PMS5003;31404;53.974;-1.086;2023-06-22T22:15:33;15;12;
33264;PMS5003;31404;53.974;-1.086;2023-06-22T22:20:34;13;13;
33264;PMS5003;31404;53.974;-1.086;2023-06-22T22:25:37;11;11;
33264;PMS5003;31404;53.974;-1.086;2023-06-22T22:30:34;11;10;
33264;PMS5003;31404;53.974;-1.086;2023-06-22T22:35:34;12;11;
33264;PMS5003;31404;53.974;-1.086;2023-06-22T22:40:34;11;11;
33264;PMS5003;31404;53.974;-1.086;2023-06-22T22:45:34;8;8;
33264;PMS5003;31404;53.974;-1.086;2023-06-22T22:50:35;9;7;
33264;PMS5003;31404;53.974;-1.086;2023-06-22T22:55:34;14;13;
33264;PMS5003;31404;53.974;-1.086;2023-06-22T23:00:35;13;12;
33264;PMS5003;31404;53.974;-1.086;2023-06-22T23:05:34;17;15;
33264;PMS5003;31404;53.974;-1.086;2023-06-22T23:10:34;11;11;
33264;PMS5003;31404;53.974;-1.086;2023-06-22T23:15:34;11;11;
33264;PMS5003;31404;53.974;-1.086;2023-06-22T23:20:34;13;10;
33264;PMS5003;31404;53.974;-1.086;2023-06-22T23:25:34;11;11;
33264;PMS5003;31404;53.974;-1.086;2023-06-22T23:30:34;13;9;
33264;PMS5003;31404;53.974;-1.086;2023-06-22T23:35:34;10;10;
33264;PMS5003;31404;53.974;-1.086;2023-06-22T23:40:34;10;10;
33264;PMS5003;31404;53.974;-1.086;2023-06-22T23:45:34;12;11;
33264;PMS5003;31404;53.974;-1.086;2023-06-22T23:50:34;10;10;
33264;PMS5003;31404;53.974;-1.086;2023-06-22T23:55:34;11;11;
